sensor_id;sensor_type;location;lat;lon;timestamp;P1;durP1;ratioP1;P2;durP2;ratioP2
36205;SDS011;22242;48.796;9.930;2023-01-30T00:00:49;27.98;;;12.98;;
36205;SDS011;22242;48.796;9.930;2023-01-30T00:03:16;24.38;;;12.70;;
36205;SDS011;22242;48.796;9.930;2023-01-30T00:05:45;24.50;;;12.88;;
36205;SDS011;22242;48.796;9.930;2023-01-30T00:08:12;25.90;;;12.85;;
36205;SDS011;22242;48.796;9.930;2023-01-30T00:10:39;26.02;;;13.95;;
36205;SDS011;22242;48.796;9.930;2023-01-30T00:13:06;29.85;;;13.73;;
36205;SDS011;22242;48.796;9.930;2023-01-30T00:15:33;23.70;;;12.68;;
36205;SDS011;22242;48.796;9.930;2023-01-30T00:18:00;25.88;;;13.40;;
36205;SDS011;22242;48.796;9.930;2023-01-30T00:20:26;28.58;;;14.13;;
36205;SDS011;22242;48.796;9.930;2023-01-30T00:22:55;27.75;;;13.43;;
36205;SDS011;22242;48.796;9.930;2023-01-30T00:25:22;26.20;;;13.82;;
36205;SDS011;22242;48.796;9.930;2023-01-30T00:27:49;28.50;;;13.90;;
36205;SDS011;22242;48.796;9.930;2023-01-30T00:30:16;27.23;;;13.07;;
36205;SDS011;22242;48.796;9.930;2023-01-30T00:32:43;23.55;;;12.88;;
36205;SDS011;22242;48.796;9.930;2023-01-30T00:35:10;23.02;;;12.48;;
36205;SDS011;22242;48.796;9.930;2023-01-30T00:37:37;23.58;;;12.35;;
36205;SDS011;22242;48.796;9.930;2023-01-30T00:40:05;27.88;;;13.63;;
36205;SDS011;22242;48.796;9.930;2023-01-30T00:42:33;24.05;;;12.65;;
36205;SDS011;22242;48.796;9.930;2023-01-30T00:45:17;23.83;;;12.23;;
36205;SDS011;22242;48.796;9.930;2023-01-30T00:48:01;24.88;;;12.57;;
36205;SDS011;22242;48.796;9.930;2023-01-30T00:50:28;24.05;;;12.10;;
36205;SDS011;22242;48.796;9.930;2023-01-30T00:53:07;24.38;;;12.30;;
36205;SDS011;22242;48.796;9.930;2023-01-30T00:55:36;23.23;;;12.35;;
36205;SDS011;22242;48.796;9.930;2023-01-30T01:05:25;20.73;;;11.38;;
36205;SDS011;22242;48.796;9.930;2023-01-30T01:07:53;25.40;;;12.23;;
36205;SDS011;22242;48.796;9.930;2023-01-30T01:10:22;24.63;;;12.40;;
36205;SDS011;22242;48.796;9.930;2023-01-30T01:12:52;23.15;;;12.27;;
36205;SDS011;22242;48.796;9.930;2023-01-30T01:15:19;23.63;;;12.00;;
36205;SDS011;22242;48.796;9.930;2023-01-30T01:17:47;24.92;;;12.60;;
36205;SDS011;22242;48.796;9.930;2023-01-30T01:20:15;25.15;;;12.77;;
36205;SDS011;22242;48.796;9.930;2023-01-30T01:22:42;27.48;;;13.25;;
36205;SDS011;22242;48.796;9.930;2023-01-30T01:25:09;24.73;;;12.35;;
36205;SDS011;22242;48.796;9.930;2023-01-30T01:27:38;26.17;;;13.48;;
36205;SDS011;22242;48.796;9.930;2023-01-30T01:30:07;24.95;;;13.38;;
36205;SDS011;22242;48.796;9.930;2023-01-30T01:32:35;29.42;;;13.85;;
36205;SDS011;22242;48.796;9.930;2023-01-30T01:35:02;26.92;;;14.10;;
36205;SDS011;22242;48.796;9.930;2023-01-30T01:37:30;24.55;;;13.07;;
36205;SDS011;22242;48.796;9.930;2023-01-30T01:39:57;29.52;;;14.02;;
36205;SDS011;22242;48.796;9.930;2023-01-30T01:42:41;28.42;;;14.00;;
36205;SDS011;22242;48.796;9.930;2023-01-30T01:45:17;33.47;;;14.63;;
36205;SDS011;22242;48.796;9.930;2023-01-30T01:47:48;29.13;;;14.40;;
36205;SDS011;22242;48.796;9.930;2023-01-30T01:50:24;30.70;;;14.65;;
36205;SDS011;22242;48.796;9.930;2023-01-30T01:52:57;26.52;;;14.20;;
36205;SDS011;22242;48.796;9.930;2023-01-30T01:55:27;27.63;;;12.82;;
36205;SDS011;22242;48.796;9.930;2023-01-30T01:57:56;30.13;;;14.77;;
36205;SDS011;22242;48.796;9.930;2023-01-30T02:00:27;29.35;;;14.25;;
36205;SDS011;22242;48.796;9.930;2023-01-30T02:02:55;30.05;;;14.23;;
36205;SDS011;22242;48.796;9.930;2023-01-30T02:05:24;29.90;;;14.10;;
36205;SDS011;22242;48.796;9.930;2023-01-30T02:07:57;26.40;;;13.25;;
36205;SDS011;22242;48.796;9.930;2023-01-30T02:10:30;26.23;;;13.15;;
36205;SDS011;22242;48.796;9.930;2023-01-30T02:13:02;29.30;;;13.20;;
36205;SDS011;22242;48.796;9.930;2023-01-30T02:15:30;27.38;;;13.95;;
36205;SDS011;22242;48.796;9.930;2023-01-30T02:17:58;30.35;;;13.88;;
36205;SDS011;22242;48.796;9.930;2023-01-30T02:20:26;32.97;;;15.70;;
36205;SDS011;22242;48.796;9.930;2023-01-30T02:26:17;27.90;;;13.85;;
36205;SDS011;22242;48.796;9.930;2023-01-30T02:29:20;27.45;;;13.93;;
36205;SDS011;22242;48.796;9.930;2023-01-30T02:32:06;28.70;;;14.80;;
36205;SDS011;22242;48.796;9.930;2023-01-30T02:34:44;25.80;;;13.18;;
36205;SDS011;22242;48.796;9.930;2023-01-30T02:37:26;27.83;;;14.18;;
36205;SDS011;22242;48.796;9.930;2023-01-30T02:40:07;26.15;;;13.43;;
36205;SDS011;22242;48.796;9.930;2023-01-30T02:42:43;29.85;;;13.68;;
36205;SDS011;22242;48.796;9.930;2023-01-30T02:45:16;26.17;;;13.45;;
36205;SDS011;22242;48.796;9.930;2023-01-30T02:47:50;27.77;;;13.52;;
36205;SDS011;22242;48.796;9.930;2023-01-30T02:50:22;28.45;;;14.55;;
36205;SDS011;22242;48.796;9.930;2023-01-30T02:52:52;28.05;;;13.95;;
36205;SDS011;22242;48.796;9.930;2023-01-30T02:55:20;29.02;;;13.65;;
36205;SDS011;22242;48.796;9.930;2023-01-30T02:57:49;30.10;;;14.20;;
36205;SDS011;22242;48.796;9.930;2023-01-30T03:00:17;29.85;;;13.60;;
36205;SDS011;22242;48.796;9.930;2023-01-30T03:03:12;23.85;;;13.00;;
36205;SDS011;22242;48.796;9.930;2023-01-30T03:05:52;25.38;;;12.77;;
36205;SDS011;22242;48.796;9.930;2023-01-30T03:08:44;27.73;;;13.43;;
36205;SDS011;22242;48.796;9.930;2023-01-30T03:11:23;29.67;;;13.13;;
36205;SDS011;22242;48.796;9.930;2023-01-30T03:14:00;28.52;;;14.77;;
36205;SDS011;22242;48.796;9.930;2023-01-30T03:16:34;27.38;;;13.88;;
36205;SDS011;22242;48.796;9.930;2023-01-30T03:19:06;26.63;;;14.07;;
36205;SDS011;22242;48.796;9.930;2023-01-30T03:21:38;26.47;;;13.23;;
36205;SDS011;22242;48.796;9.930;2023-01-30T03:24:06;25.08;;;13.57;;
36205;SDS011;22242;48.796;9.930;2023-01-30T03:26:34;28.92;;;14.05;;
36205;SDS011;22242;48.796;9.930;2023-01-30T03:29:04;30.08;;;14.73;;
36205;SDS011;22242;48.796;9.930;2023-01-30T03:31:31;25.20;;;13.40;;
36205;SDS011;22242;48.796;9.930;2023-01-30T03:33:58;25.02;;;13.07;;
36205;SDS011;22242;48.796;9.930;2023-01-30T03:36:26;25.33;;;12.52;;
36205;SDS011;22242;48.796;9.930;2023-01-30T03:38:54;23.17;;;12.02;;
36205;SDS011;22242;48.796;9.930;2023-01-30T03:41:22;23.00;;;12.07;;
36205;SDS011;22242;48.796;9.930;2023-01-30T03:43:49;22.13;;;11.15;;
36205;SDS011;22242;48.796;9.930;2023-01-30T03:46:16;22.60;;;10.82;;
36205;SDS011;22242;48.796;9.930;2023-01-30T03:48:42;20.73;;;9.85;;
36205;SDS011;22242;48.796;9.930;2023-01-30T03:51:11;21.67;;;10.32;;
36205;SDS011;22242;48.796;9.930;2023-01-30T03:53:39;19.02;;;9.60;;
36205;SDS011;22242;48.796;9.930;2023-01-30T03:56:06;19.83;;;10.10;;
36205;SDS011;22242;48.796;9.930;2023-01-30T03:58:34;18.35;;;9.57;;
36205;SDS011;22242;48.796;9.930;2023-01-30T04:01:13;22.17;;;11.40;;
36205;SDS011;22242;48.796;9.930;2023-01-30T04:03:40;19.83;;;10.52;;
36205;SDS011;22242;48.796;9.930;2023-01-30T04:06:07;23.13;;;10.73;;
36205;SDS011;22242;48.796;9.930;2023-01-30T04:08:34;20.10;;;10.50;;
36205;SDS011;22242;48.796;9.930;2023-01-30T04:11:04;20.75;;;10.57;;
36205;SDS011;22242;48.796;9.930;2023-01-30T04:13:31;23.48;;;11.57;;
36205;SDS011;22242;48.796;9.930;2023-01-30T04:16:14;22.35;;;11.35;;
36205;SDS011;22242;48.796;9.930;2023-01-30T04:19:01;22.08;;;10.52;;
36205;SDS011;22242;48.796;9.930;2023-01-30T04:21:30;21.33;;;11.15;;
36205;SDS011;22242;48.796;9.930;2023-01-30T04:23:57;20.25;;;10.55;;
36205;SDS011;22242;48.796;9.930;2023-01-30T04:26:26;20.13;;;10.73;;
36205;SDS011;22242;48.796;9.930;2023-01-30T04:28:53;22.02;;;10.25;;
36205;SDS011;22242;48.796;9.930;2023-01-30T04:31:21;18.15;;;10.52;;
36205;SDS011;22242;48.796;9.930;2023-01-30T04:33:57;19.42;;;10.68;;
36205;SDS011;22242;48.796;9.930;2023-01-30T04:36:24;18.73;;;10.38;;
36205;SDS011;22242;48.796;9.930;2023-01-30T04:38:53;18.55;;;9.88;;
36205;SDS011;22242;48.796;9.930;2023-01-30T04:41:21;18.77;;;10.18;;
36205;SDS011;22242;48.796;9.930;2023-01-30T04:43:50;16.50;;;8.60;;
36205;SDS011;22242;48.796;9.930;2023-01-30T04:46:39;18.98;;;10.40;;
36205;SDS011;22242;48.796;9.930;2023-01-30T04:49:06;19.60;;;9.50;;
36205;SDS011;22242;48.796;9.930;2023-01-30T04:51:34;17.63;;;8.60;;
36205;SDS011;22242;48.796;9.930;2023-01-30T04:54:01;17.83;;;9.13;;
36205;SDS011;22242;48.796;9.930;2023-01-30T04:56:29;18.55;;;9.00;;
36205;SDS011;22242;48.796;9.930;2023-01-30T04:58:57;14.93;;;8.35;;
36205;SDS011;22242;48.796;9.930;2023-01-30T05:01:29;15.95;;;9.43;;
36205;SDS011;22242;48.796;9.930;2023-01-30T05:03:58;13.98;;;7.78;;
36205;SDS011;22242;48.796;9.930;2023-01-30T05:06:25;13.48;;;7.75;;
36205;SDS011;22242;48.796;9.930;2023-01-30T05:08:53;15.82;;;8.35;;
36205;SDS011;22242;48.796;9.930;2023-01-30T05:11:21;16.27;;;9.00;;
36205;SDS011;22242;48.796;9.930;2023-01-30T05:13:49;15.25;;;8.35;;
36205;SDS011;22242;48.796;9.930;2023-01-30T05:16:18;15.10;;;8.35;;
36205;SDS011;22242;48.796;9.930;2023-01-30T05:18:47;12.70;;;7.03;;
36205;SDS011;22242;48.796;9.930;2023-01-30T05:21:15;15.30;;;8.50;;
36205;SDS011;22242;48.796;9.930;2023-01-30T05:23:43;13.82;;;7.88;;
36205;SDS011;22242;48.796;9.930;2023-01-30T05:26:10;14.02;;;8.35;;
36205;SDS011;22242;48.796;9.930;2023-01-30T05:28:38;16.55;;;8.77;;
36205;SDS011;22242;48.796;9.930;2023-01-30T05:31:05;12.32;;;7.25;;
36205;SDS011;22242;48.796;9.930;2023-01-30T05:33:36;15.25;;;7.88;;
36205;SDS011;22242;48.796;9.930;2023-01-30T05:36:03;11.05;;;6.60;;
36205;SDS011;22242;48.796;9.930;2023-01-30T05:38:31;17.75;;;7.88;;
36205;SDS011;22242;48.796;9.930;2023-01-30T05:40:58;13.25;;;7.45;;
36205;SDS011;22242;48.796;9.930;2023-01-30T05:43:26;16.55;;;8.20;;
36205;SDS011;22242;48.796;9.930;2023-01-30T05:45:53;11.93;;;7.28;;
36205;SDS011;22242;48.796;9.930;2023-01-30T05:48:21;11.75;;;7.03;;
36205;SDS011;22242;48.796;9.930;2023-01-30T05:50:50;12.40;;;6.45;;
36205;SDS011;22242;48.796;9.930;2023-01-30T05:53:18;13.38;;;7.45;;
36205;SDS011;22242;48.796;9.930;2023-01-30T05:55:45;12.43;;;7.50;;
36205;SDS011;22242;48.796;9.930;2023-01-30T05:58:12;16.15;;;7.75;;
36205;SDS011;22242;48.796;9.930;2023-01-30T06:00:38;13.27;;;7.10;;
36205;SDS011;22242;48.796;9.930;2023-01-30T06:03:05;16.38;;;8.07;;
36205;SDS011;22242;48.796;9.930;2023-01-30T06:05:32;13.55;;;7.30;;
36205;SDS011;22242;48.796;9.930;2023-01-30T06:08:03;12.82;;;7.38;;
36205;SDS011;22242;48.796;9.930;2023-01-30T06:10:32;13.60;;;7.32;;
36205;SDS011;22242;48.796;9.930;2023-01-30T06:12:58;13.38;;;7.32;;
36205;SDS011;22242;48.796;9.930;2023-01-30T06:15:25;15.57;;;7.60;;
36205;SDS011;22242;48.796;9.930;2023-01-30T06:17:52;14.75;;;7.45;;
36205;SDS011;22242;48.796;9.930;2023-01-30T06:20:19;12.77;;;6.85;;
36205;SDS011;22242;48.796;9.930;2023-01-30T06:22:46;14.20;;;7.45;;
36205;SDS011;22242;48.796;9.930;2023-01-30T06:25:15;12.43;;;7.10;;
36205;SDS011;22242;48.796;9.930;2023-01-30T06:27:42;14.10;;;7.68;;
36205;SDS011;22242;48.796;9.930;2023-01-30T06:30:10;14.82;;;7.63;;
36205;SDS011;22242;48.796;9.930;2023-01-30T06:32:38;13.75;;;7.40;;
36205;SDS011;22242;48.796;9.930;2023-01-30T06:35:05;12.82;;;6.65;;
36205;SDS011;22242;48.796;9.930;2023-01-30T06:37:36;15.50;;;7.38;;
36205;SDS011;22242;48.796;9.930;2023-01-30T06:40:03;12.88;;;7.10;;
36205;SDS011;22242;48.796;9.930;2023-01-30T06:42:31;10.52;;;6.50;;
36205;SDS011;22242;48.796;9.930;2023-01-30T06:44:58;10.43;;;6.10;;
36205;SDS011;22242;48.796;9.930;2023-01-30T06:47:25;11.85;;;6.80;;
36205;SDS011;22242;48.796;9.930;2023-01-30T06:49:52;12.70;;;7.15;;
36205;SDS011;22242;48.796;9.930;2023-01-30T06:52:19;13.20;;;6.70;;
36205;SDS011;22242;48.796;9.930;2023-01-30T06:54:46;12.18;;;6.55;;
36205;SDS011;22242;48.796;9.930;2023-01-30T06:57:13;12.50;;;6.57;;
36205;SDS011;22242;48.796;9.930;2023-01-30T06:59:41;10.48;;;6.57;;
36205;SDS011;22242;48.796;9.930;2023-01-30T07:02:08;10.02;;;6.07;;
36205;SDS011;22242;48.796;9.930;2023-01-30T07:04:38;12.07;;;6.05;;
36205;SDS011;22242;48.796;9.930;2023-01-30T07:07:05;11.80;;;6.60;;
36205;SDS011;22242;48.796;9.930;2023-01-30T07:09:32;10.05;;;5.90;;
36205;SDS011;22242;48.796;9.930;2023-01-30T07:11:59;11.65;;;5.68;;
36205;SDS011;22242;48.796;9.930;2023-01-30T07:14:26;10.25;;;5.88;;
36205;SDS011;22242;48.796;9.930;2023-01-30T07:16:54;9.35;;;5.53;;
36205;SDS011;22242;48.796;9.930;2023-01-30T07:19:21;10.18;;;5.65;;
36205;SDS011;22242;48.796;9.930;2023-01-30T07:21:47;8.57;;;4.97;;
36205;SDS011;22242;48.796;9.930;2023-01-30T07:24:14;10.80;;;5.65;;
36205;SDS011;22242;48.796;9.930;2023-01-30T07:26:41;11.23;;;5.35;;
36205;SDS011;22242;48.796;9.930;2023-01-30T07:29:08;10.38;;;5.30;;
36205;SDS011;22242;48.796;9.930;2023-01-30T07:31:35;9.48;;;5.63;;
36205;SDS011;22242;48.796;9.930;2023-01-30T07:34:03;10.18;;;5.85;;
36205;SDS011;22242;48.796;9.930;2023-01-30T07:36:29;8.50;;;5.47;;
36205;SDS011;22242;48.796;9.930;2023-01-30T07:38:57;9.63;;;5.50;;
36205;SDS011;22242;48.796;9.930;2023-01-30T07:41:25;10.63;;;6.45;;
36205;SDS011;22242;48.796;9.930;2023-01-30T07:43:52;12.18;;;6.10;;
36205;SDS011;22242;48.796;9.930;2023-01-30T07:46:19;16.48;;;8.05;;
36205;SDS011;22242;48.796;9.930;2023-01-30T07:48:46;13.18;;;8.20;;
36205;SDS011;22242;48.796;9.930;2023-01-30T07:51:14;9.38;;;5.70;;
36205;SDS011;22242;48.796;9.930;2023-01-30T07:53:41;11.10;;;4.93;;
36205;SDS011;22242;48.796;9.930;2023-01-30T07:56:08;8.23;;;5.13;;
36205;SDS011;22242;48.796;9.930;2023-01-30T07:58:38;8.65;;;5.47;;
36205;SDS011;22242;48.796;9.930;2023-01-30T08:01:05;7.93;;;4.75;;
36205;SDS011;22242;48.796;9.930;2023-01-30T08:03:32;10.55;;;5.65;;
36205;SDS011;22242;48.796;9.930;2023-01-30T08:05:59;9.88;;;5.78;;
36205;SDS011;22242;48.796;9.930;2023-01-30T08:08:27;8.23;;;4.95;;
36205;SDS011;22242;48.796;9.930;2023-01-30T08:10:54;10.90;;;6.05;;
36205;SDS011;22242;48.796;9.930;2023-01-30T08:13:20;8.95;;;5.38;;
36205;SDS011;22242;48.796;9.930;2023-01-30T08:15:47;7.82;;;4.97;;
36205;SDS011;22242;48.796;9.930;2023-01-30T08:18:15;9.27;;;5.00;;
36205;SDS011;22242;48.796;9.930;2023-01-30T08:20:41;9.30;;;5.25;;
36205;SDS011;22242;48.796;9.930;2023-01-30T08:23:08;8.18;;;4.57;;
36205;SDS011;22242;48.796;9.930;2023-01-30T08:25:37;8.00;;;5.20;;
36205;SDS011;22242;48.796;9.930;2023-01-30T08:28:03;7.28;;;5.10;;
36205;SDS011;22242;48.796;9.930;2023-01-30T08:30:30;7.32;;;4.95;;
36205;SDS011;22242;48.796;9.930;2023-01-30T08:32:57;14.77;;;7.05;;
36205;SDS011;22242;48.796;9.930;2023-01-30T08:35:24;10.02;;;6.00;;
36205;SDS011;22242;48.796;9.930;2023-01-30T08:37:51;8.38;;;4.90;;
36205;SDS011;22242;48.796;9.930;2023-01-30T08:40:18;9.30;;;5.13;;
36205;SDS011;22242;48.796;9.930;2023-01-30T08:42:46;9.73;;;5.22;;
36205;SDS011;22242;48.796;9.930;2023-01-30T08:45:13;7.20;;;4.47;;
36205;SDS011;22242;48.796;9.930;2023-01-30T08:47:40;9.68;;;5.18;;
36205;SDS011;22242;48.796;9.930;2023-01-30T08:50:07;9.40;;;5.30;;
36205;SDS011;22242;48.796;9.930;2023-01-30T08:52:35;7.85;;;5.13;;
36205;SDS011;22242;48.796;9.930;2023-01-30T08:55:02;10.27;;;5.60;;
36205;SDS011;22242;48.796;9.930;2023-01-30T08:57:29;8.88;;;4.68;;
36205;SDS011;22242;48.796;9.930;2023-01-30T08:59:58;8.50;;;5.03;;
36205;SDS011;22242;48.796;9.930;2023-01-30T09:02:25;6.85;;;4.05;;
36205;SDS011;22242;48.796;9.930;2023-01-30T09:04:52;8.80;;;4.35;;
36205;SDS011;22242;48.796;9.930;2023-01-30T09:07:19;7.13;;;4.10;;
36205;SDS011;22242;48.796;9.930;2023-01-30T09:09:46;8.10;;;4.40;;
36205;SDS011;22242;48.796;9.930;2023-01-30T09:12:13;6.90;;;4.10;;
36205;SDS011;22242;48.796;9.930;2023-01-30T09:14:40;7.63;;;4.20;;
36205;SDS011;22242;48.796;9.930;2023-01-30T09:17:08;7.55;;;4.60;;
36205;SDS011;22242;48.796;9.930;2023-01-30T09:19:35;5.93;;;3.88;;
36205;SDS011;22242;48.796;9.930;2023-01-30T09:22:01;7.40;;;4.35;;
36205;SDS011;22242;48.796;9.930;2023-01-30T09:24:29;6.97;;;4.38;;
36205;SDS011;22242;48.796;9.930;2023-01-30T09:26:56;7.50;;;4.30;;
36205;SDS011;22242;48.796;9.930;2023-01-30T09:29:23;5.18;;;3.85;;
36205;SDS011;22242;48.796;9.930;2023-01-30T09:31:50;6.47;;;4.18;;
36205;SDS011;22242;48.796;9.930;2023-01-30T09:34:19;8.73;;;5.18;;
36205;SDS011;22242;48.796;9.930;2023-01-30T09:36:46;9.55;;;5.35;;
36205;SDS011;22242;48.796;9.930;2023-01-30T09:39:13;6.40;;;3.58;;
36205;SDS011;22242;48.796;9.930;2023-01-30T09:41:47;7.78;;;4.57;;
36205;SDS011;22242;48.796;9.930;2023-01-30T09:44:29;6.78;;;3.47;;
36205;SDS011;22242;48.796;9.930;2023-01-30T09:47:14;7.70;;;3.95;;
36205;SDS011;22242;48.796;9.930;2023-01-30T09:52:24;5.50;;;3.80;;
36205;SDS011;22242;48.796;9.930;2023-01-30T09:54:58;7.15;;;3.90;;
36205;SDS011;22242;48.796;9.930;2023-01-30T09:57:35;5.35;;;3.50;;
36205;SDS011;22242;48.796;9.930;2023-01-30T10:00:02;5.78;;;3.10;;
36205;SDS011;22242;48.796;9.930;2023-01-30T10:02:40;5.70;;;3.75;;
36205;SDS011;22242;48.796;9.930;2023-01-30T10:05:13;5.43;;;3.67;;
36205;SDS011;22242;48.796;9.930;2023-01-30T10:07:44;5.13;;;3.40;;
36205;SDS011;22242;48.796;9.930;2023-01-30T10:10:23;5.10;;;3.25;;
36205;SDS011;22242;48.796;9.930;2023-01-30T10:13:01;5.82;;;3.58;;
36205;SDS011;22242;48.796;9.930;2023-01-30T10:15:38;5.65;;;3.40;;
36205;SDS011;22242;48.796;9.930;2023-01-30T10:18:17;5.32;;;3.33;;
36205;SDS011;22242;48.796;9.930;2023-01-30T10:21:09;4.35;;;3.28;;
36205;SDS011;22242;48.796;9.930;2023-01-30T10:23:46;6.07;;;3.50;;
36205;SDS011;22242;48.796;9.930;2023-01-30T10:26:25;6.13;;;3.63;;
36205;SDS011;22242;48.796;9.930;2023-01-30T10:28:56;7.15;;;3.40;;
36205;SDS011;22242;48.796;9.930;2023-01-30T10:31:25;5.78;;;3.63;;
36205;SDS011;22242;48.796;9.930;2023-01-30T10:33:58;5.85;;;3.78;;
36205;SDS011;22242;48.796;9.930;2023-01-30T10:36:31;6.88;;;3.35;;
36205;SDS011;22242;48.796;9.930;2023-01-30T10:39:07;4.45;;;3.38;;
36205;SDS011;22242;48.796;9.930;2023-01-30T10:41:44;5.43;;;3.70;;
36205;SDS011;22242;48.796;9.930;2023-01-30T10:44:20;5.97;;;3.55;;
36205;SDS011;22242;48.796;9.930;2023-01-30T10:49:47;5.43;;;4.00;;
36205;SDS011;22242;48.796;9.930;2023-01-30T10:52:23;5.32;;;3.65;;
36205;SDS011;22242;48.796;9.930;2023-01-30T10:55:00;5.93;;;3.97;;
36205;SDS011;22242;48.796;9.930;2023-01-30T10:57:41;5.85;;;3.75;;
36205;SDS011;22242;48.796;9.930;2023-01-30T11:00:18;5.75;;;3.88;;
36205;SDS011;22242;48.796;9.930;2023-01-30T11:05:46;5.65;;;3.85;;
36205;SDS011;22242;48.796;9.930;2023-01-30T11:08:18;8.07;;;4.18;;
36205;SDS011;22242;48.796;9.930;2023-01-30T11:10:49;6.97;;;4.30;;
36205;SDS011;22242;48.796;9.930;2023-01-30T11:13:18;8.18;;;5.30;;
36205;SDS011;22242;48.796;9.930;2023-01-30T11:15:47;7.93;;;4.50;;
36205;SDS011;22242;48.796;9.930;2023-01-30T11:18:16;6.70;;;4.57;;
36205;SDS011;22242;48.796;9.930;2023-01-30T11:20:50;8.00;;;5.00;;
36205;SDS011;22242;48.796;9.930;2023-01-30T11:23:30;7.18;;;4.82;;
36205;SDS011;22242;48.796;9.930;2023-01-30T11:26:00;6.93;;;4.22;;
36205;SDS011;22242;48.796;9.930;2023-01-30T11:28:28;7.50;;;4.53;;
36205;SDS011;22242;48.796;9.930;2023-01-30T11:33:30;6.78;;;4.53;;
36205;SDS011;22242;48.796;9.930;2023-01-30T11:36:00;9.13;;;4.85;;
36205;SDS011;22242;48.796;9.930;2023-01-30T11:38:30;8.43;;;4.32;;
36205;SDS011;22242;48.796;9.930;2023-01-30T11:41:06;8.20;;;4.78;;
36205;SDS011;22242;48.796;9.930;2023-01-30T11:43:43;6.82;;;4.50;;
36205;SDS011;22242;48.796;9.930;2023-01-30T11:46:10;6.50;;;4.13;;
36205;SDS011;22242;48.796;9.930;2023-01-30T11:48:42;6.75;;;4.70;;
36205;SDS011;22242;48.796;9.930;2023-01-30T11:51:18;7.93;;;4.88;;
36205;SDS011;22242;48.796;9.930;2023-01-30T11:53:49;8.32;;;4.93;;
36205;SDS011;22242;48.796;9.930;2023-01-30T11:56:21;7.80;;;4.85;;
36205;SDS011;22242;48.796;9.930;2023-01-30T11:58:52;6.55;;;4.22;;
36205;SDS011;22242;48.796;9.930;2023-01-30T12:01:24;6.78;;;4.28;;
36205;SDS011;22242;48.796;9.930;2023-01-30T12:03:53;8.05;;;5.13;;
36205;SDS011;22242;48.796;9.930;2023-01-30T12:06:22;7.68;;;4.95;;
36205;SDS011;22242;48.796;9.930;2023-01-30T12:08:55;6.30;;;4.28;;
36205;SDS011;22242;48.796;9.930;2023-01-30T12:14:18;7.43;;;5.13;;
36205;SDS011;22242;48.796;9.930;2023-01-30T12:16:56;6.20;;;4.38;;
36205;SDS011;22242;48.796;9.930;2023-01-30T12:19:39;6.55;;;4.15;;
36205;SDS011;22242;48.796;9.930;2023-01-30T12:22:15;8.40;;;4.57;;
36205;SDS011;22242;48.796;9.930;2023-01-30T12:24:51;6.10;;;4.03;;
36205;SDS011;22242;48.796;9.930;2023-01-30T12:27:24;6.07;;;4.28;;
36205;SDS011;22242;48.796;9.930;2023-01-30T12:30:02;5.93;;;3.70;;
36205;SDS011;22242;48.796;9.930;2023-01-30T12:32:31;5.88;;;3.85;;
36205;SDS011;22242;48.796;9.930;2023-01-30T12:34:59;6.80;;;4.00;;
36205;SDS011;22242;48.796;9.930;2023-01-30T12:37:30;6.15;;;4.05;;
36205;SDS011;22242;48.796;9.930;2023-01-30T12:40:10;6.00;;;4.25;;
36205;SDS011;22242;48.796;9.930;2023-01-30T12:42:55;4.78;;;3.70;;
36205;SDS011;22242;48.796;9.930;2023-01-30T12:45:36;7.38;;;4.32;;
36205;SDS011;22242;48.796;9.930;2023-01-30T12:51:18;6.30;;;4.20;;
36205;SDS011;22242;48.796;9.930;2023-01-30T12:53:58;5.80;;;3.92;;
36205;SDS011;22242;48.796;9.930;2023-01-30T12:56:48;6.68;;;4.72;;
36205;SDS011;22242;48.796;9.930;2023-01-30T12:59:24;6.38;;;4.00;;
36205;SDS011;22242;48.796;9.930;2023-01-30T13:02:03;6.35;;;4.40;;
36205;SDS011;22242;48.796;9.930;2023-01-30T13:04:48;6.75;;;4.10;;
36205;SDS011;22242;48.796;9.930;2023-01-30T13:07:26;8.93;;;4.45;;
36205;SDS011;22242;48.796;9.930;2023-01-30T13:10:02;6.18;;;3.90;;
36205;SDS011;22242;48.796;9.930;2023-01-30T13:12:39;7.18;;;3.97;;
36205;SDS011;22242;48.796;9.930;2023-01-30T13:15:15;6.40;;;4.03;;
36205;SDS011;22242;48.796;9.930;2023-01-30T13:17:52;8.68;;;5.07;;
36205;SDS011;22242;48.796;9.930;2023-01-30T13:20:30;7.95;;;4.28;;
36205;SDS011;22242;48.796;9.930;2023-01-30T13:23:09;6.63;;;4.13;;
36205;SDS011;22242;48.796;9.930;2023-01-30T13:25:44;6.82;;;4.25;;
36205;SDS011;22242;48.796;9.930;2023-01-30T13:28:20;6.65;;;3.92;;
36205;SDS011;22242;48.796;9.930;2023-01-30T13:30:50;5.07;;;3.65;;
36205;SDS011;22242;48.796;9.930;2023-01-30T13:33:19;6.15;;;4.15;;
36205;SDS011;22242;48.796;9.930;2023-01-30T13:35:50;6.55;;;4.30;;
36205;SDS011;22242;48.796;9.930;2023-01-30T13:38:20;6.57;;;4.40;;
36205;SDS011;22242;48.796;9.930;2023-01-30T13:40:49;6.80;;;4.40;;
36205;SDS011;22242;48.796;9.930;2023-01-30T13:43:22;8.60;;;5.03;;
36205;SDS011;22242;48.796;9.930;2023-01-30T13:45:53;8.20;;;5.15;;
36205;SDS011;22242;48.796;9.930;2023-01-30T13:48:28;8.30;;;4.75;;
36205;SDS011;22242;48.796;9.930;2023-01-30T13:51:20;8.63;;;4.47;;
36205;SDS011;22242;48.796;9.930;2023-01-30T13:54:00;7.97;;;4.45;;
36205;SDS011;22242;48.796;9.930;2023-01-30T13:56:34;8.73;;;4.95;;
36205;SDS011;22242;48.796;9.930;2023-01-30T13:59:09;8.95;;;4.82;;
36205;SDS011;22242;48.796;9.930;2023-01-30T14:04:42;8.35;;;4.75;;
36205;SDS011;22242;48.796;9.930;2023-01-30T14:07:13;7.93;;;4.45;;
36205;SDS011;22242;48.796;9.930;2023-01-30T14:09:44;7.72;;;4.65;;
36205;SDS011;22242;48.796;9.930;2023-01-30T14:12:18;8.45;;;4.95;;
36205;SDS011;22242;48.796;9.930;2023-01-30T14:14:58;9.07;;;5.20;;
36205;SDS011;22242;48.796;9.930;2023-01-30T14:17:27;7.35;;;4.43;;
36205;SDS011;22242;48.796;9.930;2023-01-30T14:19:56;12.82;;;6.47;;
36205;SDS011;22242;48.796;9.930;2023-01-30T14:22:27;12.27;;;6.65;;
36205;SDS011;22242;48.796;9.930;2023-01-30T14:31:11;12.40;;;5.70;;
36205;SDS011;22242;48.796;9.930;2023-01-30T14:37:44;7.72;;;5.50;;
36205;SDS011;22242;48.796;9.930;2023-01-30T14:40:26;9.18;;;5.40;;
36205;SDS011;22242;48.796;9.930;2023-01-30T14:45:52;10.25;;;5.50;;
36205;SDS011;22242;48.796;9.930;2023-01-30T14:48:24;9.02;;;5.80;;
36205;SDS011;22242;48.796;9.930;2023-01-30T14:53:49;8.38;;;5.32;;
36205;SDS011;22242;48.796;9.930;2023-01-30T14:56:20;11.00;;;6.63;;
36205;SDS011;22242;48.796;9.930;2023-01-30T14:59:04;10.65;;;6.00;;
36205;SDS011;22242;48.796;9.930;2023-01-30T15:04:47;10.18;;;6.38;;
36205;SDS011;22242;48.796;9.930;2023-01-30T15:07:20;10.68;;;5.95;;
36205;SDS011;22242;48.796;9.930;2023-01-30T15:09:52;10.50;;;6.25;;
36205;SDS011;22242;48.796;9.930;2023-01-30T15:12:39;10.95;;;5.93;;
36205;SDS011;22242;48.796;9.930;2023-01-30T15:15:29;11.90;;;6.47;;
36205;SDS011;22242;48.796;9.930;2023-01-30T15:18:09;10.20;;;6.10;;
36205;SDS011;22242;48.796;9.930;2023-01-30T15:20:49;12.00;;;6.53;;
36205;SDS011;22242;48.796;9.930;2023-01-30T15:26:36;9.93;;;6.68;;
36205;SDS011;22242;48.796;9.930;2023-01-30T15:32:18;11.40;;;7.13;;
36205;SDS011;22242;48.796;9.930;2023-01-30T15:34:50;13.82;;;7.30;;
36205;SDS011;22242;48.796;9.930;2023-01-30T15:37:28;9.02;;;6.45;;
36205;SDS011;22242;48.796;9.930;2023-01-30T15:40:09;12.05;;;6.45;;
36205;SDS011;22242;48.796;9.930;2023-01-30T15:42:49;12.48;;;6.63;;
36205;SDS011;22242;48.796;9.930;2023-01-30T15:45:23;8.85;;;6.43;;
36205;SDS011;22242;48.796;9.930;2023-01-30T15:48:02;9.95;;;5.93;;
36205;SDS011;22242;48.796;9.930;2023-01-30T15:50:46;10.10;;;5.80;;
36205;SDS011;22242;48.796;9.930;2023-01-30T15:53:14;11.70;;;5.78;;
36205;SDS011;22242;48.796;9.930;2023-01-30T15:55:41;9.45;;;6.00;;